Time;durP1;ratioP1;P1;durP2;ratioP2;P2;SDS_P1;SDS_P2;PMS_P1;PMS_P2;Temp;Humidity;BMP_temperature;BMP_pressure;BME280_temperature;BME280_humidity;BME280_pressure;Samples;Min_cycle;Max_cycle;Signal;HPM_P1;HPM_P2
2021/06/05 00:00:14;;;;;;;10.07;9.48;;;12.80;99.90;;;;;;5096981;28;20055;-48
2021/06/05 00:02:42;;;;;;;9.20;8.70;;;12.80;99.90;;;;;;5097079;28;20484;-46
2021/06/05 00:05:10;;;;;;;8.60;8.00;;;12.70;99.90;;;;;;5097061;28;20017;-46
2021/06/05 00:07:37;;;;;;;7.85;7.45;;;12.70;99.90;;;;;;5095847;28;20027;-50
2021/06/05 00:10:09;;;;;;;8.02;7.50;;;12.80;99.90;;;;;;5096980;28;20045;-47
2021/06/05 00:12:36;;;;;;;8.95;8.32;;;12.90;99.90;;;;;;5096948;28;20099;-53
2021/06/05 00:15:10;;;;;;;8.45;7.78;;;12.80;99.90;;;;;;5096841;28;20032;-52
2021/06/05 00:17:37;;;;;;;8.00;7.40;;;12.80;99.90;;;;;;5097015;28;20024;-53
2021/06/05 00:20:13;;;;;;;7.15;6.65;;;12.90;99.90;;;;;;5095662;28;20020;-53
2021/06/05 00:22:41;;;;;;;6.65;6.25;;;12.90;99.90;;;;;;5096621;28;20103;-52
2021/06/05 00:25:12;;;;;;;6.32;5.75;;;13.00;99.90;;;;;;5096746;28;20093;-53
2021/06/05 00:27:40;;;;;;;6.20;5.68;;;13.00;99.90;;;;;;5096835;28;20044;-53
2021/06/05 00:30:08;;;;;;;6.20;5.65;;;13.10;99.90;;;;;;5096671;28;20024;-52
2021/06/05 00:32:36;;;;;;;5.80;5.40;;;13.20;99.90;;;;;;5096509;28;20412;-52
2021/06/05 00:35:04;;;;;;;5.43;5.10;;;13.20;99.90;;;;;;5096488;28;20028;-53
2021/06/05 00:37:32;;;;;;;6.32;5.03;;;13.30;99.40;;;;;;5096428;28;20035;-50
2021/06/05 00:39:59;;;;;;;5.78;5.28;;;13.20;98.40;;;;;;5096286;28;20435;-52
2021/06/05 00:42:26;;;;;;;5.22;4.53;;;13.20;98.70;;;;;;5096290;28;20020;-50
2021/06/05 00:44:54;;;;;;;6.55;4.90;;;13.50;98.70;;;;;;5096047;28;20039;-49
2021/06/05 00:47:21;;;;;;;4.95;4.55;;;13.70;98.70;;;;;;5096240;28;20048;-47
2021/06/05 00:49:49;;;;;;;5.10;4.70;;;13.70;98.50;;;;;;5095990;28;20049;-51
2021/06/05 00:52:21;;;;;;;5.38;5.00;;;13.60;98.80;;;;;;5096265;28;20046;-50
2021/06/05 00:54:49;;;;;;;5.97;5.43;;;13.60;98.60;;;;;;5096146;28;20418;-52
2021/06/05 00:57:16;;;;;;;6.00;5.60;;;13.70;98.30;;;;;;5096234;28;20099;-48
2021/06/05 00:59:44;;;;;;;6.00;5.50;;;13.80;98.20;;;;;;5095922;28;20154;-46
2021/06/05 01:02:11;;;;;;;8.48;6.05;;;13.80;97.70;;;;;;5095834;28;20425;-52
2021/06/05 01:04:39;;;;;;;5.40;5.00;;;14.00;97.70;;;;;;5095905;28;20376;-50
2021/06/05 01:07:13;;;;;;;6.20;5.72;;;14.10;98.00;;;;;;5095850;28;20020;-49
2021/06/05 01:10:00;;;;;;;6.05;5.55;;;14.20;97.90;;;;;;5095233;28;20016;-49
2021/06/05 01:12:49;;;;;;;6.90;5.00;;;14.20;97.60;;;;;;5095705;28;20396;-50
2021/06/05 01:15:26;;;;;;;6.90;5.10;;;14.00;96.60;;;;;;5095751;28;20069;-48
2021/06/05 01:18:02;;;;;;;5.72;5.22;;;14.00;97.20;;;;;;5096022;28;20035;-46
2021/06/05 01:20:40;;;;;;;5.80;5.30;;;14.00;96.60;;;;;;5095034;28;20119;-53
2021/06/05 01:23:19;;;;;;;5.68;5.25;;;14.10;96.80;;;;;;5095926;28;20031;-48
2021/06/05 01:26:19;;;;;;;5.53;5.03;;;14.30;99.90;;;;;;5095624;28;20021;-48
2021/06/05 01:29:08;;;;;;;5.60;5.10;;;14.40;96.30;;;;;;5095643;28;20020;-50
2021/06/05 01:31:39;;;;;;;6.20;5.13;;;14.50;98.90;;;;;;5095491;28;20031;-51
2021/06/05 01:34:07;;;;;;;6.07;5.50;;;14.80;99.00;;;;;;5095445;28;20055;-48
2021/06/05 01:36:41;;;;;;;5.90;5.40;;;14.80;98.40;;;;;;5095521;28;20031;-47
2021/06/05 01:39:11;;;;;;;5.60;5.10;;;14.80;98.20;;;;;;5095425;28;20050;-48
2021/06/05 01:41:40;;;;;;;5.18;4.68;;;14.90;97.80;;;;;;5095514;28;20031;-50
2021/06/05 01:44:09;;;;;;;5.18;4.80;;;14.90;97.60;;;;;;5094928;28;20047;-50
2021/06/05 01:46:41;;;;;;;5.93;4.32;;;15.00;95.90;;;;;;5095220;28;20016;-48
2021/06/05 01:49:09;;;;;;;5.57;4.95;;;14.80;95.50;;;;;;5095235;28;20099;-46
2021/06/05 01:51:52;;;;;;;4.75;4.50;;;14.90;94.40;;;;;;5094982;28;20020;-48
2021/06/05 01:54:40;;;;;;;4.90;4.60;;;14.90;94.00;;;;;;5095120;28;20027;-47
2021/06/05 01:57:12;;;;;;;4.90;4.38;;;15.00;93.80;;;;;;5095107;28;20104;-48
2021/06/05 01:59:40;;;;;;;5.22;4.82;;;15.10;94.20;;;;;;5095069;28;20031;-47
2021/06/05 02:02:08;;;;;;;5.45;5.05;;;15.20;93.60;;;;;;5094898;28;20103;-46
2021/06/05 02:04:36;;;;;;;4.70;4.30;;;15.40;93.60;;;;;;5094715;28;20051;-49
2021/06/05 02:07:06;;;;;;;4.57;4.18;;;15.30;91.80;;;;;;5094365;28;20111;-46
2021/06/05 02:09:34;;;;;;;4.60;4.18;;;15.10;92.00;;;;;;5094605;28;20027;-47
2021/06/05 02:12:08;;;;;;;5.00;4.45;;;15.20;92.90;;;;;;5094595;28;20047;-48
2021/06/05 02:14:40;;;;;;;5.13;4.72;;;15.30;92.80;;;;;;5094615;28;20020;-49
2021/06/05 02:17:10;;;;;;;5.00;4.65;;;15.20;92.60;;;;;;5094613;28;20020;-48
2021/06/05 02:19:40;;;;;;;4.68;4.28;;;15.20;92.00;;;;;;5094438;28;20031;-51
2021/06/05 02:22:12;;;;;;;4.55;4.20;;;15.20;91.80;;;;;;5093826;28;20016;-51
2021/06/05 02:24:46;;;;;;;4.78;4.38;;;15.40;91.70;;;;;;5094433;28;20105;-47
2021/06/05 02:27:20;;;;;;;5.53;5.03;;;15.60;92.20;;;;;;5094387;28;20025;-49
2021/06/05 02:29:48;;;;;;;4.90;4.57;;;15.60;93.10;;;;;;5092943;28;20495;-53
2021/06/05 02:32:18;;;;;;;4.15;3.75;;;15.70;91.00;;;;;;5094572;28;20020;-50
2021/06/05 02:34:46;;;;;;;;;;;15.50;90.70;;;;;;5094773;28;20020;-51
2021/06/05 02:37:17;;;;;;;4.15;3.95;;;15.60;89.30;;;;;;5093080;28;19915;-49
2021/06/05 02:39:45;;;;;;;4.15;3.95;;;15.60;90.70;;;;;;5094186;28;20028;-49
2021/06/05 02:42:20;;;;;;;3.60;3.50;;;15.50;90.00;;;;;;5094103;28;20031;-50
2021/06/05 02:44:51;;;;;;;3.80;3.50;;;15.60;89.40;;;;;;5093789;28;20059;-52
2021/06/05 02:47:20;;;;;;;4.30;4.00;;;15.80;90.50;;;;;;5093924;28;20016;-52
2021/06/05 02:49:48;;;;;;;3.78;3.58;;;15.90;90.90;;;;;;5093890;28;20023;-49
2021/06/05 02:52:29;;;;;;;3.90;3.67;;;16.10;90.40;;;;;;5093856;28;20028;-51
2021/06/05 02:55:12;;;;;;;3.90;3.60;;;16.10;90.10;;;;;;5093852;28;20020;-48
2021/06/05 02:57:40;;;;;;;4.47;4.07;;;16.10;88.10;;;;;;5092418;28;20020;-52
2021/06/05 03:00:26;;;;;;;4.18;3.88;;;16.10;87.50;;;;;;5093622;28;20027;-51
2021/06/05 03:02:54;;;;;;;5.10;4.63;;;16.20;87.80;;;;;;5092325;28;20028;-52
2021/06/05 03:05:21;;;;;;;11.13;5.18;;;16.10;88.10;;;;;;5093519;28;20077;-50
2021/06/05 03:07:49;;;;;;;4.78;4.40;;;16.30;90.20;;;;;;5093487;28;20532;-52
2021/06/05 03:10:17;;;;;;;4.93;4.30;;;16.60;89.10;;;;;;5093484;28;20023;-51
2021/06/05 03:12:44;;;;;;;7.57;4.43;;;16.50;89.30;;;;;;5093412;28;20392;-52
2021/06/05 03:15:14;;;;;;;3.72;3.42;;;16.40;90.60;;;;;;5093393;28;20020;-52
2021/06/05 03:17:41;;;;;;;4.30;3.80;;;16.30;88.80;;;;;;5093321;28;20019;-52
2021/06/05 03:20:13;;;;;;;4.00;3.45;;;16.30;91.10;;;;;;5093191;28;20027;-52
2021/06/05 03:22:40;;;;;;;3.45;3.15;;;16.30;88.50;;;;;;5093213;28;20028;-47
2021/06/05 03:25:09;;;;;;;3.60;3.40;;;15.90;87.30;;;;;;5093062;28;20028;-51
2021/06/05 03:27:37;;;;;;;3.63;3.33;;;16.00;86.90;;;;;;5093204;28;20020;-53
2021/06/05 03:30:07;;;;;;;3.50;3.30;;;16.10;86.10;;;;;;5093163;28;20027;-48
2021/06/05 03:32:35;;;;;;;3.45;3.25;;;16.00;86.50;;;;;;5092818;28;20032;-47
2021/06/05 03:35:02;;;;;;;3.75;3.20;;;15.70;86.50;;;;;;5093146;28;20438;-50
2021/06/05 03:37:30;;;;;;;3.80;3.50;;;15.90;87.00;;;;;;5093116;28;20027;-51
2021/06/05 03:39:57;;;;;;;4.00;3.70;;;15.80;86.40;;;;;;5093029;28;20024;-49
2021/06/05 03:42:26;;;;;;;4.22;3.92;;;15.70;87.90;;;;;;5092913;28;20048;-52
2021/06/05 03:44:56;;;;;;;4.30;4.00;;;15.80;89.10;;;;;;5092891;28;20115;-51
2021/06/05 03:47:25;;;;;;;4.30;4.00;;;15.80;88.10;;;;;;5093086;28;20024;-46
2021/06/05 03:49:53;;;;;;;3.72;3.53;;;16.00;90.20;;;;;;5093164;28;20047;-50
2021/06/05 03:52:24;;;;;;;4.00;3.80;;;15.70;87.80;;;;;;5093010;28;20485;-50
2021/06/05 03:54:53;;;;;;;4.22;3.90;;;15.80;88.90;;;;;;5092907;28;20047;-49
2021/06/05 03:57:23;;;;;;;3.60;3.40;;;15.90;87.90;;;;;;5092828;28;20073;-47
2021/06/05 03:59:52;;;;;;;3.83;3.63;;;16.10;88.50;;;;;;5092810;28;20020;-54
2021/06/05 04:02:20;;;;;;;4.10;3.90;;;16.00;88.70;;;;;;5092573;28;20040;-49
2021/06/05 04:04:48;;;;;;;4.25;3.85;;;16.10;89.70;;;;;;5092882;28;20464;-54
2021/06/05 04:07:17;;;;;;;3.72;3.53;;;16.20;91.40;;;;;;5092804;28;20024;-52
2021/06/05 04:09:45;;;;;;;4.50;4.20;;;16.10;89.80;;;;;;5092782;28;20016;-51
2021/06/05 04:12:14;;;;;;;4.55;4.22;;;15.90;91.20;;;;;;5092758;28;20122;-50
2021/06/05 04:14:42;;;;;;;4.43;4.03;;;16.00;89.70;;;;;;5092799;28;20027;-47
2021/06/05 04:17:11;;;;;;;4.10;3.80;;;16.00;88.40;;;;;;5093000;28;20040;-47
2021/06/05 04:19:39;;;;;;;4.20;4.00;;;16.00;89.90;;;;;;5092653;28;20546;-50
2021/06/05 04:22:09;;;;;;;3.40;3.25;;;16.00;90.90;;;;;;5092613;28;20035;-52
2021/06/05 04:24:37;;;;;;;4.10;3.70;;;16.00;92.00;;;;;;5092764;28;20024;-49
2021/06/05 04:27:06;;;;;;;3.60;3.35;;;16.00;90.90;;;;;;5091508;28;20136;-53
2021/06/05 04:29:33;;;;;;;3.70;3.50;;;16.00;91.20;;;;;;5092840;28;20489;-51
2021/06/05 04:32:01;;;;;;;4.25;3.95;;;15.90;90.80;;;;;;5092686;28;20099;-51
2021/06/05 04:34:28;;;;;;;3.90;3.60;;;15.90;90.00;;;;;;5092631;28;20024;-56
2021/06/05 04:36:56;;;;;;;3.78;3.45;;;15.80;90.90;;;;;;5092674;28;20016;-52
2021/06/05 04:39:23;;;;;;;3.58;3.28;;;15.80;90.30;;;;;;5092677;28;20099;-49
2021/06/05 04:41:50;;;;;;;3.63;3.33;;;15.70;90.00;;;;;;5092406;28;20024;-47
2021/06/05 04:44:18;;;;;;;3.70;3.50;;;15.70;91.10;;;;;;5093244;28;20040;-50
2021/06/05 04:46:45;;;;;;;3.70;3.50;;;15.80;90.60;;;;;;5095055;28;20106;-54
2021/06/05 04:49:13;;;;;;;4.35;3.85;;;15.80;90.50;;;;;;5096237;28;20024;-54
2021/06/05 04:51:40;;;;;;;4.75;4.45;;;15.70;91.80;;;;;;5096265;28;20028;-53
2021/06/05 04:54:08;;;;;;;4.20;4.00;;;15.60;88.60;;;;;;5094879;28;20035;-51
2021/06/05 04:56:40;;;;;;;4.30;4.05;;;15.70;90.20;;;;;;5096177;28;20476;-50
2021/06/05 04:59:08;;;;;;;4.18;3.97;;;15.60;90.20;;;;;;5096036;28;20024;-52
2021/06/05 05:01:36;;;;;;;4.50;4.10;;;15.70;91.60;;;;;;5095894;28;20515;-47
2021/06/05 05:04:04;;;;;;;5.15;4.65;;;15.50;90.20;;;;;;5095955;28;20640;-46
2021/06/05 05:06:32;;;;;;;4.28;3.97;;;15.50;90.40;;;;;;5095934;28;20027;-50
2021/06/05 05:08:59;;;;;;;4.30;3.90;;;15.50;91.20;;;;;;5096058;28;20024;-48
2021/06/05 05:11:27;;;;;;;4.40;4.10;;;15.40;91.90;;;;;;5095808;28;20016;-48
2021/06/05 05:13:54;;;;;;;4.30;4.00;;;15.40;93.50;;;;;;5095753;28;20028;-48
2021/06/05 05:16:24;;;;;;;3.92;3.50;;;15.40;92.40;;;;;;5096045;28;20073;-47
2021/06/05 05:18:53;;;;;;;4.40;3.97;;;15.40;93.80;;;;;;5095696;28;20028;-51
2021/06/05 05:21:22;;;;;;;3.88;3.67;;;15.40;92.90;;;;;;5095477;28;20032;-49
2021/06/05 05:23:51;;;;;;;4.20;4.00;;;15.40;92.60;;;;;;5095620;28;20020;-49
2021/06/05 05:26:20;;;;;;;3.80;3.60;;;15.30;93.60;;;;;;5095525;28;20027;-49
2021/06/05 05:28:49;;;;;;;3.95;3.75;;;15.30;93.50;;;;;;5095532;28;20020;-50
2021/06/05 05:31:19;;;;;;;4.38;4.05;;;15.30;92.60;;;;;;5095326;28;20077;-49
2021/06/05 05:33:47;;;;;;;3.97;3.78;;;15.30;93.20;;;;;;5095417;28;20033;-53
2021/06/05 05:36:18;;;;;;;4.18;3.80;;;15.30;92.20;;;;;;5095368;28;20032;-51
2021/06/05 05:38:45;;;;;;;4.32;3.97;;;15.20;94.10;;;;;;5095313;28;20020;-49
2021/06/05 05:41:15;;;;;;;4.00;3.70;;;15.10;93.70;;;;;;5095255;28;20028;-46
2021/06/05 05:43:43;;;;;;;3.80;3.60;;;15.10;93.80;;;;;;5095074;28;20123;-48
2021/06/05 05:46:11;;;;;;;3.88;3.67;;;15.10;93.40;;;;;;5095039;28;20020;-48
2021/06/05 05:48:39;;;;;;;3.75;3.55;;;15.10;93.70;;;;;;5095124;28;20039;-52
2021/06/05 05:51:09;;;;;;;3.83;3.53;;;15.00;94.30;;;;;;5095088;28;20103;-50
2021/06/05 05:53:39;;;;;;;3.97;3.67;;;15.00;95.00;;;;;;5095341;28;20035;-47
2021/06/05 05:56:08;;;;;;;3.88;3.58;;;14.90;95.50;;;;;;5094681;28;20027;-49
2021/06/05 05:58:40;;;;;;;3.97;3.67;;;14.90;95.60;;;;;;5094845;28;20023;-48
2021/06/05 06:01:10;;;;;;;4.00;3.70;;;14.80;94.70;;;;;;5094830;28;20366;-46
2021/06/05 06:03:38;;;;;;;4.68;4.38;;;14.80;94.80;;;;;;5094710;28;20027;-47
2021/06/05 06:06:10;;;;;;;4.28;4.00;;;14.80;95.40;;;;;;5094790;28;20103;-49
2021/06/05 06:08:38;;;;;;;4.22;3.92;;;14.70;94.90;;;;;;5094696;28;20498;-50
2021/06/05 06:11:09;;;;;;;4.30;4.10;;;14.60;95.70;;;;;;5094692;28;20032;-51
2021/06/05 06:13:37;;;;;;;4.55;4.15;;;14.60;95.70;;;;;;5094570;28;20044;-49
2021/06/05 06:16:09;;;;;;;4.78;4.47;;;14.50;95.80;;;;;;5094767;28;20446;-45
2021/06/05 06:18:38;;;;;;;4.50;4.20;;;14.40;96.60;;;;;;5094454;28;20480;-49
2021/06/05 06:21:08;;;;;;;4.80;4.40;;;14.20;96.60;;;;;;5093429;28;20035;-49
2021/06/05 06:23:39;;;;;;;4.20;3.90;;;14.20;96.80;;;;;;5094489;28;20047;-51
2021/06/05 06:26:19;;;;;;;4.57;4.28;;;14.10;96.70;;;;;;5094385;28;20034;-49
2021/06/05 06:28:47;;;;;;;4.23;4.03;;;14.00;97.00;;;;;;5094379;28;20047;-46
2021/06/05 06:31:17;;;;;;;4.72;4.32;;;14.00;97.40;;;;;;5094302;28;20031;-47
2021/06/05 06:34:09;;;;;;;4.60;4.20;;;13.80;98.20;;;;;;5092847;28;20025;-50
2021/06/05 06:36:39;;;;;;;312.20;200.40;;;13.70;98.00;;;;;;5092923;28;20036;-47
2021/06/05 06:39:07;;;;;;;55.90;35.20;;;13.60;98.50;;;;;;5094159;28;20436;-52
2021/06/05 06:41:34;;;;;;;14.40;11.55;;;13.50;99.70;;;;;;5093886;28;20312;-49
2021/06/05 06:44:04;;;;;;;10.25;9.15;;;13.40;99.90;;;;;;5093864;28;20119;-47
2021/06/05 06:46:37;;;;;;;6.38;5.97;;;13.20;99.90;;;;;;5093887;28;20078;-49
2021/06/05 06:49:06;;;;;;;5.90;5.50;;;13.00;99.90;;;;;;5094076;28;20108;-46
2021/06/05 06:51:34;;;;;;;5.70;5.30;;;12.80;99.90;;;;;;5093844;28;20026;-49
2021/06/05 06:54:02;;;;;;;5.10;4.80;;;12.70;99.90;;;;;;5093764;28;20032;-51
2021/06/05 06:56:30;;;;;;;5.80;5.50;;;12.60;99.90;;;;;;5093762;28;20095;-48
2021/06/05 06:58:57;;;;;;;6.10;5.60;;;12.40;99.90;;;;;;5093685;28;20152;-49
2021/06/05 07:01:24;;;;;;;5.28;4.95;;;12.30;99.90;;;;;;5093852;28;20032;-48
2021/06/05 07:03:52;;;;;;;5.18;4.85;;;12.20;99.90;;;;;;5093587;28;20020;-49
2021/06/05 07:06:21;;;;;;;5.80;5.40;;;12.10;99.90;;;;;;5093257;28;20020;-49
2021/06/05 07:08:49;;;;;;;7.90;7.30;;;12.00;99.90;;;;;;5093433;28;20024;-46
2021/06/05 07:11:21;;;;;;;12.70;11.70;;;11.90;99.90;;;;;;5093448;28;20051;-45
2021/06/05 07:13:49;;;;;;;11.13;10.20;;;11.90;99.90;;;;;;5093366;28;20024;-47
2021/06/05 07:16:17;;;;;;;10.23;9.52;;;11.80;99.90;;;;;;5093361;28;20028;-49
2021/06/05 07:18:45;;;;;;;9.48;8.82;;;11.80;99.90;;;;;;5093380;28;20421;-53
2021/06/05 07:21:13;;;;;;;9.57;8.77;;;11.60;99.90;;;;;;5093169;28;20020;-49
2021/06/05 07:23:42;;;;;;;8.10;7.50;;;11.60;99.90;;;;;;5093254;28;20022;-48
2021/06/05 07:26:17;;;;;;;8.00;7.40;;;11.50;99.90;;;;;;5093428;28;20024;-45
2021/06/05 07:28:48;;;;;;;8.20;7.68;;;11.40;99.90;;;;;;5093186;28;20073;-45
2021/06/05 07:31:20;;;;;;;8.30;7.70;;;11.40;99.90;;;;;;5093452;28;20028;-50
2021/06/05 07:33:48;;;;;;;7.60;7.10;;;11.40;99.90;;;;;;5093231;28;20024;-48
2021/06/05 07:36:27;;;;;;;8.30;7.80;;;11.30;99.90;;;;;;5093041;28;20020;-50
2021/06/05 07:38:55;;;;;;;7.70;7.28;;;11.30;99.90;;;;;;5092964;28;20024;-50
2021/06/05 07:41:23;;;;;;;7.35;6.72;;;11.20;99.90;;;;;;5092753;28;20133;-52
2021/06/05 07:43:50;;;;;;;7.60;7.10;;;11.20;99.90;;;;;;5092771;28;20051;-45
2021/06/05 07:46:18;;;;;;;7.53;7.03;;;11.10;99.90;;;;;;5092899;28;20024;-48
2021/06/05 07:48:45;;;;;;;8.38;7.88;;;11.00;99.90;;;;;;5092842;28;20020;-47
2021/06/05 07:51:13;;;;;;;9.18;8.55;;;11.00;99.90;;;;;;5091727;28;20031;-47
2021/06/05 07:53:40;;;;;;;9.15;8.55;;;11.00;99.90;;;;;;5092900;28;20032;-49
2021/06/05 07:56:08;;;;;;;10.20;9.60;;;10.90;99.90;;;;;;5091670;28;20392;-50
2021/06/05 07:58:35;;;;;;;10.02;9.43;;;10.80;99.90;;;;;;5091540;28;20031;-51
2021/06/05 08:01:04;;;;;;;10.75;10.15;;;10.80;99.90;;;;;;5092754;28;20473;-47
2021/06/05 08:03:31;;;;;;;10.75;10.05;;;10.70;99.90;;;;;;5092781;28;20499;-47
2021/06/05 08:05:59;;;;;;;12.57;11.73;;;10.70;99.90;;;;;;5092770;28;20024;-49
2021/06/05 08:08:26;;;;;;;14.45;13.25;;;10.60;99.90;;;;;;5092912;28;20470;-46
2021/06/05 08:10:54;;;;;;;12.38;11.48;;;10.60;99.90;;;;;;5092848;28;20048;-52
2021/06/05 08:13:21;;;;;;;11.70;11.00;;;10.50;99.90;;;;;;5093097;28;20020;-51
2021/06/05 08:15:51;;;;;;;13.57;12.73;;;10.50;99.90;;;;;;5092816;28;20388;-56
2021/06/05 08:18:20;;;;;;;13.35;12.45;;;10.50;99.90;;;;;;5093840;28;20028;-49
2021/06/05 08:20:57;;;;;;;14.15;13.25;;;10.40;99.90;;;;;;5096671;28;20082;-54
2021/06/05 08:23:31;;;;;;;13.25;12.45;;;10.30;99.90;;;;;;5096801;28;20384;-53
2021/06/05 08:25:59;;;;;;;13.75;12.90;;;10.30;99.90;;;;;;5096746;28;20016;-51
2021/06/05 08:28:27;;;;;;;14.45;13.60;;;10.20;99.90;;;;;;5096627;28;20020;-53
2021/06/05 08:30:59;;;;;;;15.20;14.40;;;10.20;99.90;;;;;;5096618;28;20030;-47
2021/06/05 08:33:26;;;;;;;16.05;14.93;;;10.20;99.90;;;;;;5096361;28;20020;-50
2021/06/05 08:35:54;;;;;;;16.83;15.73;;;10.10;99.90;;;;;;5096378;28;20031;-47
2021/06/05 08:38:25;;;;;;;16.45;15.45;;;10.10;99.90;;;;;;5096241;28;20027;-46
2021/06/05 08:41:27;;;;;;;16.73;15.82;;;10.10;99.90;;;;;;5095014;28;20024;-47
2021/06/05 08:44:06;;;;;;;17.38;16.23;;;10.10;99.90;;;;;;5096229;28;20400;-50
2021/06/05 08:46:40;;;;;;;17.00;15.90;;;10.10;99.90;;;;;;5094941;28;20529;-50
2021/06/05 08:49:28;;;;;;;17.55;16.20;;;10.10;99.90;;;;;;5096352;28;20020;-49
2021/06/05 08:52:32;;;;;;;18.50;17.40;;;10.10;99.90;;;;;;5096124;28;20020;-46
2021/06/05 08:55:10;;;;;;;19.20;18.10;;;10.10;99.90;;;;;;5096018;28;20515;-48
2021/06/05 08:57:59;;;;;;;19.65;18.48;;;10.10;99.90;;;;;;5096279;28;20027;-47
2021/06/05 09:00:38;;;;;;;20.40;19.27;;;10.00;99.90;;;;;;5095922;28;20148;-47
2021/06/05 09:03:15;;;;;;;20.98;19.77;;;10.00;99.90;;;;;;5095868;28;20113;-46
2021/06/05 09:06:12;;;;;;;21.73;20.42;;;10.00;99.90;;;;;;5095976;28;20027;-46
2021/06/05 09:08:40;;;;;;;22.60;21.30;;;10.00;99.90;;;;;;5095872;28;20050;-47
2021/06/05 09:11:09;;;;;;;23.10;21.70;;;10.00;99.90;;;;;;5095826;28;20069;-47
2021/06/05 09:13:37;;;;;;;23.20;21.92;;;9.90;99.90;;;;;;5095701;28;20024;-49
2021/06/05 09:16:20;;;;;;;23.20;21.80;;;9.90;99.90;;;;;;5095694;28;20020;-47
2021/06/05 09:19:03;;;;;;;25.00;23.50;;;9.90;99.90;;;;;;5095590;28;20100;-51
2021/06/05 09:21:38;;;;;;;24.48;22.98;;;9.90;99.90;;;;;;5095607;28;20055;-49
2021/06/05 09:24:32;;;;;;;24.73;23.13;;;9.80;99.90;;;;;;5095338;28;20074;-50
2021/06/05 09:27:02;;;;;;;23.95;22.55;;;9.80;99.90;;;;;;5095445;28;20028;-50
2021/06/05 09:29:33;;;;;;;24.67;23.20;;;9.80;99.90;;;;;;5095011;28;20043;-52
2021/06/05 09:32:10;;;;;;;27.85;25.63;;;9.70;99.90;;;;;;5093904;28;20488;-51
2021/06/05 09:34:43;;;;;;;40.58;36.80;;;9.70;99.90;;;;;;5095341;28;20031;-49
2021/06/05 09:37:29;;;;;;;40.13;36.53;;;9.50;99.90;;;;;;5095489;28;20078;-50
2021/06/05 09:40:24;;;;;;;37.90;34.80;;;9.70;99.90;;;;;;5095255;28;20030;-51
2021/06/05 09:42:57;;;;;;;34.90;32.10;;;9.50;99.90;;;;;;5093748;28;20443;-51
2021/06/05 09:45:27;;;;;;;32.47;29.95;;;9.40;99.90;;;;;;5095146;28;20136;-48
2021/06/05 09:48:14;;;;;;;32.05;29.67;;;9.40;99.90;;;;;;5095146;28;20016;-53
2021/06/05 09:50:43;;;;;;;30.38;28.23;;;9.30;99.90;;;;;;5095350;28;20110;-51
2021/06/05 09:53:20;;;;;;;30.20;28.15;;;9.30;99.90;;;;;;5094948;28;20032;-49
2021/06/05 09:55:48;;;;;;;30.92;28.83;;;9.40;99.90;;;;;;5093761;28;20107;-52
2021/06/05 09:58:42;;;;;;;30.65;28.67;;;9.30;99.90;;;;;;5094881;28;20103;-51
2021/06/05 10:01:14;;;;;;;30.45;28.65;;;9.30;99.90;;;;;;5094801;28;20027;-50
2021/06/05 10:03:41;;;;;;;28.23;26.55;;;9.30;99.90;;;;;;5094822;28;20042;-51
2021/06/05 10:06:38;;;;;;;28.38;26.48;;;9.40;99.90;;;;;;5094705;28;20020;-50
2021/06/05 10:09:25;;;;;;;27.98;26.30;;;9.40;99.90;;;;;;5094740;28;20016;-48
2021/06/05 10:12:23;;;;;;;27.33;25.73;;;9.40;99.90;;;;;;5083029;28;20077;-48
2021/06/05 10:15:01;;;;;;;28.13;26.42;;;9.40;99.90;;;;;;5088808;28;20065;-50
2021/06/05 10:17:53;;;;;;;27.23;25.52;;;9.40;99.90;;;;;;5094465;28;20032;-49
2021/06/05 10:20:23;;;;;;;27.30;25.55;;;9.40;99.90;;;;;;5094323;28;20031;-51
2021/06/05 10:22:56;;;;;;;26.40;24.75;;;9.30;99.90;;;;;;5093049;28;20032;-48
2021/06/05 10:25:34;;;;;;;26.10;24.40;;;9.30;99.90;;;;;;5094364;28;20042;-50
2021/06/05 10:28:28;;;;;;;26.33;24.73;;;9.30;99.90;;;;;;5094433;28;20017;-50
2021/06/05 10:31:12;;;;;;;26.13;24.58;;;9.30;99.90;;;;;;5094259;28;20021;-50
2021/06/05 10:33:54;;;;;;;25.95;24.55;;;9.30;99.90;;;;;;5094324;28;20051;-51
2021/06/05 10:36:50;;;;;;;24.58;23.27;;;9.30;99.90;;;;;;5094175;28;20043;-45
2021/06/05 10:39:37;;;;;;;24.65;23.25;;;9.30;99.90;;;;;;5094203;28;20043;-46
2021/06/05 10:42:14;;;;;;;24.60;23.17;;;9.30;99.90;;;;;;5093176;28;20024;-48
2021/06/05 10:44:41;;;;;;;23.85;22.65;;;9.30;99.90;;;;;;5094009;28;20043;-47
2021/06/05 10:47:27;;;;;;;24.40;23.10;;;9.30;99.90;;;;;;5094047;28;20030;-50
2021/06/05 10:50:14;;;;;;;24.45;23.15;;;9.20;99.90;;;;;;5093989;28;20020;-53
2021/06/05 10:52:54;;;;;;;24.27;23.05;;;9.20;99.90;;;;;;5093938;28;20028;-48
2021/06/05 10:55:35;;;;;;;25.05;23.65;;;9.10;99.90;;;;;;5094145;28;20023;-50
2021/06/05 10:58:27;;;;;;;25.00;23.60;;;9.10;99.90;;;;;;5093896;28;20032;-47
2021/06/05 11:01:05;;;;;;;25.60;24.20;;;9.10;99.90;;;;;;5093845;28;20128;-50
2021/06/05 11:03:32;;;;;;;25.67;24.33;;;9.10;99.90;;;;;;5093792;28;20082;-51
2021/06/05 11:06:04;;;;;;;26.00;24.60;;;9.00;99.90;;;;;;5093745;28;20099;-51
2021/06/05 11:08:51;;;;;;;26.10;24.70;;;9.00;99.90;;;;;;5093769;28;20020;-51
2021/06/05 11:11:39;;;;;;;26.80;25.30;;;8.90;99.90;;;;;;5093680;28;20107;-50
2021/06/05 11:14:24;;;;;;;26.35;24.92;;;9.00;99.90;;;;;;5093702;28;20024;-46
2021/06/05 11:17:03;;;;;;;26.30;24.80;;;8.90;99.90;;;;;;5093555;28;20032;-48
2021/06/05 11:19:44;;;;;;;25.15;23.75;;;8.90;99.90;;;;;;5093695;28;20437;-50
2021/06/05 11:22:30;;;;;;;;;;;8.90;99.90;;;;;;5093878;28;20024;-49
2021/06/05 11:25:07;;;;;;;24.52;23.13;;;8.90;99.90;;;;;;5082100;28;19959;-51
2021/06/05 11:27:37;;;;;;;23.40;22.10;;;8.90;99.90;;;;;;5093438;28;20020;-53
2021/06/05 11:30:25;;;;;;;20.05;18.95;;;9.10;99.90;;;;;;5093433;28;20024;-49
2021/06/05 11:32:57;;;;;;;19.73;18.67;;;9.30;99.90;;;;;;5086133;28;20038;-48
2021/06/05 11:35:40;;;;;;;17.35;16.35;;;9.50;99.90;;;;;;5093235;28;20453;-49
2021/06/05 11:38:32;;;;;;;16.75;15.75;;;9.80;99.90;;;;;;5093460;28;20032;-48
2021/06/05 11:41:06;;;;;;;15.85;14.95;;;10.00;99.90;;;;;;5093167;28;20452;-51
2021/06/05 11:43:33;;;;;;;15.52;14.73;;;9.90;99.90;;;;;;5093077;28;20063;-50
2021/06/05 11:46:09;;;;;;;15.02;14.20;;;9.90;99.90;;;;;;5093191;28;20032;-48
2021/06/05 11:49:01;;;;;;;15.32;14.35;;;9.90;99.90;;;;;;5091857;28;20024;-51
2021/06/05 11:51:41;;;;;;;15.05;14.05;;;9.90;99.90;;;;;;5092989;28;20024;-50
2021/06/05 11:54:13;;;;;;;14.75;13.73;;;9.80;99.90;;;;;;5092890;28;20080;-47
2021/06/05 11:57:08;;;;;;;13.90;13.00;;;9.80;99.90;;;;;;5092949;28;20035;-48
2021/06/05 11:59:44;;;;;;;13.48;12.68;;;10.00;99.90;;;;;;5093010;28;20020;-48
2021/06/05 12:02:28;;;;;;;13.38;12.57;;;10.00;99.90;;;;;;5092963;28;20024;-47
2021/06/05 12:05:23;;;;;;;12.63;11.82;;;10.10;99.90;;;;;;5092960;28;20380;-49
2021/06/05 12:07:51;;;;;;;11.45;10.75;;;10.40;99.90;;;;;;5091664;28;20032;-53
2021/06/05 12:10:37;;;;;;;12.30;11.60;;;10.60;99.90;;;;;;5092949;28;20102;-55
2021/06/05 12:13:07;;;;;;;11.30;10.70;;;10.60;99.90;;;;;;5092996;28;20480;-47
2021/06/05 12:15:38;;;;;;;11.90;11.20;;;10.60;99.90;;;;;;5092912;28;20482;-51
2021/06/05 12:18:18;;;;;;;11.15;10.55;;;10.60;99.90;;;;;;5092832;28;20024;-51
2021/06/05 12:20:59;;;;;;;11.65;10.90;;;10.60;99.90;;;;;;5092775;28;20023;-49
2021/06/05 12:23:41;;;;;;;11.50;10.75;;;10.60;99.90;;;;;;5092868;28;20117;-55
2021/06/05 12:26:14;;;;;;;11.95;11.25;;;10.60;99.90;;;;;;5092902;28;20480;-52
2021/06/05 12:28:47;;;;;;;12.35;11.55;;;10.50;99.90;;;;;;5093024;28;20077;-52
2021/06/05 12:31:34;;;;;;;12.57;11.75;;;10.50;99.90;;;;;;5092938;28;20016;-52
2021/06/05 12:34:30;;;;;;;12.68;11.90;;;10.50;99.90;;;;;;5091725;28;20070;-51
2021/06/05 12:37:01;;;;;;;15.27;14.38;;;10.40;99.90;;;;;;5087293;28;20028;-49
2021/06/05 12:39:28;;;;;;;17.25;16.05;;;10.20;99.90;;;;;;5092752;28;20091;-51
2021/06/05 12:41:56;;;;;;;18.45;16.95;;;10.10;99.90;;;;;;5092524;28;20024;-53
2021/06/05 12:44:29;;;;;;;19.27;17.83;;;10.00;99.90;;;;;;5092374;28;20061;-52
2021/06/05 12:46:58;;;;;;;19.80;18.33;;;9.90;99.90;;;;;;5092515;28;20404;-52
2021/06/05 12:49:28;;;;;;;21.52;19.63;;;9.80;99.90;;;;;;5092504;28;20043;-51
2021/06/05 12:51:59;;;;;;;23.13;21.23;;;9.70;99.90;;;;;;5092563;28;20030;-50
2021/06/05 12:54:37;;;;;;;23.08;21.42;;;9.70;99.90;;;;;;5092642;28;20036;-53
2021/06/05 12:57:38;;;;;;;22.67;20.88;;;9.70;99.90;;;;;;5092620;28;20024;-47
2021/06/05 13:00:29;;;;;;;23.05;21.33;;;9.60;99.90;;;;;;5092580;28;20027;-53
2021/06/05 13:03:09;;;;;;;21.58;20.08;;;9.90;99.90;;;;;;5092511;28;20044;-49
2021/06/05 13:05:44;;;;;;;21.23;19.73;;;9.60;99.90;;;;;;5094010;28;20020;-49
2021/06/05 13:08:13;;;;;;;20.38;19.15;;;9.60;99.90;;;;;;5096267;28;20043;-48
2021/06/05 13:10:47;;;;;;;18.95;17.67;;;9.70;99.90;;;;;;5096018;28;20047;-49